Архив погоды в Астраханке

Метеограмма Астраханка
Среда, 23 Августа
Время местн. Темп Ветер Видим Явления Облачность нижн/средн/верх Атм. давл. Влжн Точка росы ВНГО R Сост. почвы Tg s
Напр Скр Прв ур.ст ур.м изм
07:00 +20.5° Ю-З 2 - 10 км - облачно 751 757 +1 91% +19° 1 км 0 Сухая (без трещин) +20° -
04:00 +22.3° Ю 1 - 10 км - облачно 750 756 +0.2 82% +19° более 2.5 км - - - -
01:00 +23.1° З,Ю-З 2 - 10 км - облачно 750 756 +0.5 79% +19.2° 1 км - - - -
Вторник, 22 Августа
Время местн. Темп Ветер Видим Явления Облачность нижн/средн/верх Атм. давл. Влжн Точка росы ВНГО R Сост. почвы Tg s
Напр Скр Прв ур.ст ур.м изм
22:00 +23.8° Ю-З 2 - 10 км - облачно 749 756 +0.8 90% +22.1° 1 км - - - -
19:00 +28.8° Ю,Ю-З 2 - 20 км - переменная облачность 748 755 +0.2 71% +23° 1 км 0 - - -
16:00 +27.9° В,Ю-В 3 - 20 км - переменная облачность 748 755 -0.8 79% +24° 1 км - - - -
13:00 +27° Ю 2 - более 50 км - переменная облачность 749 755 +0.1 70% +21° более 2.5 км - - - -
10:00 +21.2° Ю,Ю-З 3 - 20 км - облачно с прояснениями 749 755 -0.3 87% +18.9° более 2.5 км - - - -
07:00 +16.1° Ю,Ю-З 2 - 20 км - облачно с прояснениями 749 756 +0.5 98% +15.8° 600 м 0 Сухая (без трещин) +16° -
04:00 +16.4° Ю 2 - 10 км - ясно 748 755 -0.5 97% +16° более 2.5 км - - - -
01:00 +17.9° Ю,Ю-З 3 - 20 км - ясно 749 756 -0.8 92% +16.6° более 2.5 км - - - -
Понедельник, 21 Августа
Время местн. Темп Ветер Видим Явления Облачность нижн/средн/верх Атм. давл. Влжн Точка росы ВНГО R Сост. почвы Tg s
Напр Скр Прв ур.ст ур.м изм
22:00 +19.2° Ю-З 3 - 20 км - ясно 750 757 +0.5 88% +17.2° более 2.5 км - - - -
19:00 +22.6° Ю 4 - 20 км - переменная облачность 749 756 -0.7 75% +18° 1 км 0 - - -
16:00 +23.6° Ю 4 11 20 км - облачно 750 757 -0.7 75% +19° 1 км - - - -
13:00 +24.1° Ю 5 - 20 км - облачно 751 757 -1 74% +19.1° 1 км - - - -
10:00 +20.7° Ю,Ю-З 3 - 10 км - облачно 752 758 0 88% +18.7° 300 м - - - -
07:00 +17.5° Ю 1 - 4 км дымка облачно с прояснениями 752 759 -0.2 98% +17.2° 300 м 0 Сухая (без трещин) +17° -
04:00 +18.3° Ю,Ю-З 4 - 4 км дымка переменная облачность 752 759 -0.2 96% +17.6° 300 м - - - -
01:00 +18.1° Ю 2 - 2 км дымка переменная облачность 752 759 -0.2 97% +17.6° 300 м - - - -
Воскресенье, 20 Августа
Время местн. Темп Ветер Видим Явления Облачность нижн/средн/верх Атм. давл. Влжн Точка росы ВНГО R Сост. почвы Tg s
Напр Скр Прв ур.ст ур.м изм
22:00 +20° Ю-З 3 - 20 км - ясно 752 759 +0.8 82% +16.9° более 2.5 км - - - -
19:00 +26.2° Ю 3 - 20 км - ясно 752 758 -0.5 56% +16.8° более 2.5 км 0 - - -
16:00 +29.1° Ю 3 - 20 км - ясно 752 759 -1.1 47% +16.5° более 2.5 км - - - -
13:00 +27° Ю 3 - 20 км - ясно 753 760 -0.8 55% +17.3° более 2.5 км - - - -
10:00 +20.6° Ю-З 3 - 20 км небо без изменений {туман} незначительная облачность 754 761 +0.2 87% +18.4° 600 м - - - -
07:00 +17.6° Ю,Ю-З 3 - 200 м туман, небо видно облачно 754 761 +0.4 98% +17.3° 300 м 0 Влажная (без луж) +17° -
04:00 +17.7° Ю,Ю-З 4 - 20 км - ясно 754 760 -0.3 97% +17.2° более 2.5 км - - - -